createdAt,value
2022-08-02T00:02:14.457Z,24.61
2022-08-02T00:04:44.554Z,24.58
2022-08-02T00:07:12.342Z,24.59
2022-08-02T00:09:40.379Z,24.58
2022-08-02T00:12:09.486Z,24.59
2022-08-02T00:14:39.222Z,24.57
2022-08-02T00:17:07.104Z,24.59
2022-08-02T00:19:35.373Z,24.58
2022-08-02T00:22:03.024Z,24.56
2022-08-02T00:24:31.199Z,24.53
2022-08-02T00:26:58.975Z,24.54
2022-08-02T00:29:26.718Z,24.48
2022-08-02T00:31:58.705Z,24.49
2022-08-02T00:34:32.017Z,24.47
2022-08-02T00:37:02.738Z,24.45
2022-08-02T00:39:35.755Z,24.40
2022-08-02T00:42:04.326Z,24.36
2022-08-02T00:44:32.364Z,24.34
2022-08-02T00:47:19.197Z,24.32
2022-08-02T00:49:50.437Z,24.29
2022-08-02T00:52:18.205Z,24.25
2022-08-02T00:54:45.977Z,24.24
2022-08-02T00:57:13.680Z,24.17
2022-08-02T00:59:43.231Z,24.14
2022-08-02T01:02:30.582Z,24.19
2022-08-02T01:04:58.461Z,24.20
2022-08-02T01:07:26.150Z,24.15
2022-08-02T01:09:54.107Z,24.15
2022-08-02T01:12:21.899Z,24.10
2022-08-02T01:14:51.853Z,24.11
2022-08-02T01:18:02.976Z,24.06
2022-08-02T01:20:59.011Z,24.04
2022-08-02T01:23:41.105Z,23.96
2022-08-02T01:26:35.556Z,23.91
2022-08-02T01:29:09.673Z,23.89
2022-08-02T01:31:43.762Z,23.88
2022-08-02T01:34:18.597Z,23.84
2022-08-02T01:36:50.815Z,23.83
2022-08-02T01:39:27.324Z,23.84
2022-08-02T01:42:02.041Z,23.81
2022-08-02T01:47:31.784Z,23.71
2022-08-02T01:50:02.114Z,23.70
2022-08-02T01:52:33.699Z,23.79
2022-08-02T01:55:06.445Z,23.82
2022-08-02T01:57:41.969Z,23.76
2022-08-02T02:00:11.669Z,23.75
2022-08-02T02:02:44.373Z,23.69
2022-08-02T02:05:16.710Z,23.67
2022-08-02T02:07:46.731Z,23.68
2022-08-02T02:10:16.654Z,23.63
2022-08-02T02:12:47.071Z,23.63
2022-08-02T02:15:15.371Z,23.60
2022-08-02T02:17:52.888Z,23.60
2022-08-02T02:20:35.464Z,23.51
2022-08-02T02:23:04.039Z,23.51
2022-08-02T02:25:36.371Z,23.50
2022-08-02T02:31:22.784Z,23.40
2022-08-02T02:34:03.105Z,23.38
2022-08-02T02:36:31.892Z,23.33
2022-08-02T02:39:02.698Z,23.34
2022-08-02T02:41:30.595Z,23.31
2022-08-02T02:44:03.786Z,23.29
2022-08-02T02:46:33.270Z,23.30
2022-08-02T02:49:03.077Z,23.31
2022-08-02T02:51:31.010Z,23.25
2022-08-02T02:54:32.388Z,23.22
2022-08-02T02:56:54.909Z,23.23
2022-08-02T02:59:22.873Z,23.16
2022-08-02T03:01:56.575Z,23.14
2022-08-02T03:04:55.460Z,23.13
2022-08-02T03:07:16.821Z,23.23
2022-08-02T03:09:44.970Z,23.26
2022-08-02T03:12:20.012Z,23.24
2022-08-02T03:14:54.418Z,23.23
2022-08-02T03:17:22.124Z,23.21
2022-08-02T03:19:51.289Z,23.21
2022-08-02T03:22:32.891Z,23.12
2022-08-02T03:25:00.557Z,23.03
2022-08-02T03:27:28.256Z,23.00
2022-08-02T03:29:56.017Z,22.89
2022-08-02T03:32:23.750Z,22.91
2022-08-02T03:34:55.909Z,22.94
2022-08-02T03:37:25.115Z,22.94
2022-08-02T03:39:54.744Z,23.00
2022-08-02T03:42:22.864Z,22.94
2022-08-02T03:44:51.563Z,22.92
2022-08-02T03:47:20.193Z,22.86
2022-08-02T03:49:48.495Z,22.84
2022-08-02T03:52:17.600Z,22.85
2022-08-02T03:54:46.111Z,22.83
2022-08-02T03:57:17.610Z,23.04
2022-08-02T03:59:47.226Z,22.82
2022-08-02T04:02:15.237Z,22.80
2022-08-02T04:04:42.973Z,22.81
2022-08-02T04:07:10.983Z,22.80
2022-08-02T04:09:40.558Z,22.79
2022-08-02T04:12:08.853Z,22.77
2022-08-02T04:14:39.030Z,22.75
2022-08-02T04:17:10.473Z,22.76
2022-08-02T04:19:40.609Z,22.72
2022-08-02T04:22:19.326Z,22.76
2022-08-02T04:25:01.521Z,22.74
2022-08-02T04:27:51.395Z,22.72
2022-08-02T04:30:18.521Z,22.68
2022-08-02T04:33:41.709Z,22.65
2022-08-02T04:36:10.664Z,22.62
2022-08-02T04:38:39.442Z,22.61
2022-08-02T04:41:08.487Z,22.50
2022-08-02T04:43:36.412Z,22.38
2022-08-02T04:46:07.214Z,22.37
2022-08-02T04:48:35.047Z,22.39
2022-08-02T04:51:02.714Z,22.45
2022-08-02T04:53:36.305Z,22.53
2022-08-02T04:56:04.053Z,22.53
2022-08-02T04:58:40.957Z,22.58
2022-08-02T05:01:08.918Z,22.62
2022-08-02T05:03:36.657Z,22.67
2022-08-02T05:06:04.521Z,22.75
2022-08-02T05:11:34.483Z,22.86
2022-08-02T05:14:05.500Z,22.90
2022-08-02T05:16:33.283Z,22.94
2022-08-02T05:19:03.632Z,22.97
2022-08-02T05:21:31.863Z,22.93
2022-08-02T05:23:59.762Z,22.96
2022-08-02T05:26:27.456Z,22.96
2022-08-02T05:28:55.194Z,22.99
2022-08-02T05:31:24.307Z,23.01
2022-08-02T05:33:52.364Z,23.03
2022-08-02T05:36:21.664Z,23.09
2022-08-02T05:41:36.099Z,23.17
2022-08-02T05:44:03.967Z,23.18
2022-08-02T05:46:33.014Z,23.25
2022-08-02T05:49:01.434Z,23.22
2022-08-02T05:51:35.955Z,23.26
2022-08-02T05:54:17.174Z,23.33
2022-08-02T05:56:57.263Z,23.35
2022-08-02T05:59:41.900Z,23.41
2022-08-02T06:02:30.587Z,23.47
2022-08-02T06:05:12.248Z,23.47
2022-08-02T06:07:43.001Z,23.48
2022-08-02T06:10:13.616Z,23.52
2022-08-02T06:12:45.655Z,23.59
2022-08-02T06:15:15.426Z,23.66
2022-08-02T06:17:48.658Z,23.70
2022-08-02T06:20:35.277Z,23.71
2022-08-02T06:23:13.865Z,23.79
2022-08-02T06:29:38.334Z,23.87
2022-08-02T06:32:08.869Z,23.93
2022-08-02T06:34:39.254Z,23.97
2022-08-02T06:37:15.526Z,23.97
2022-08-02T06:39:46.495Z,23.92
2022-08-02T06:42:27.306Z,23.88
2022-08-02T06:44:57.767Z,23.88
2022-08-02T06:47:26.223Z,23.92
2022-08-02T06:49:56.938Z,23.97
2022-08-02T06:52:28.889Z,24.01
2022-08-02T06:54:57.966Z,24.00
2022-08-02T06:57:25.705Z,24.08
2022-08-02T06:59:53.503Z,24.18
2022-08-02T07:02:21.370Z,24.22
2022-08-02T07:04:50.166Z,24.29
2022-08-02T07:07:19.300Z,24.37
2022-08-02T07:09:56.971Z,24.44
2022-08-02T07:12:30.338Z,24.46
2022-08-02T07:14:58.546Z,24.54
2022-08-02T07:17:26.581Z,24.55
2022-08-02T07:19:54.361Z,24.59
2022-08-02T07:22:24.418Z,24.61
2022-08-02T07:24:52.408Z,24.68
2022-08-02T07:27:20.300Z,24.67
2022-08-02T07:29:48.184Z,24.75
2022-08-02T07:32:16.519Z,24.78
2022-08-02T07:34:50.985Z,24.84
2022-08-02T07:37:54.176Z,24.90
2022-08-02T07:40:14.037Z,24.99
2022-08-02T07:42:43.904Z,25.05
2022-08-02T07:45:12.639Z,25.07
2022-08-02T07:47:41.222Z,25.09
2022-08-02T07:50:11.965Z,25.18
2022-08-02T07:52:41.627Z,25.29
2022-08-02T07:55:10.850Z,25.35
2022-08-02T07:57:43.891Z,25.41
2022-08-02T08:00:16.056Z,25.55
2022-08-02T08:02:44.669Z,25.59
2022-08-02T08:05:12.792Z,25.66
2022-08-02T08:07:41.927Z,25.73
2022-08-02T08:10:25.068Z,25.84
2022-08-02T08:13:03.309Z,26.01
2022-08-02T08:15:30.957Z,26.04
2022-08-02T08:17:59.593Z,26.12
2022-08-02T08:20:41.450Z,26.24
2022-08-02T08:23:10.549Z,26.27
2022-08-02T08:25:39.912Z,26.36
2022-08-02T08:28:09.313Z,26.42
2022-08-02T08:30:37.055Z,26.54
2022-08-02T08:33:04.818Z,26.58
2022-08-02T08:35:32.577Z,26.68
2022-08-02T08:38:04.171Z,26.81
2022-08-02T08:40:42.578Z,26.82
2022-08-02T08:43:10.381Z,26.85
2022-08-02T08:45:38.655Z,26.96
2022-08-02T08:48:12.754Z,27.06
2022-08-02T08:50:43.879Z,27.15
2022-08-02T08:53:13.682Z,27.18
2022-08-02T08:55:43.538Z,27.31
2022-08-02T08:58:13.316Z,27.44
2022-08-02T09:00:42.243Z,27.48
2022-08-02T09:03:10.706Z,27.63
2022-08-02T09:05:39.756Z,27.74
2022-08-02T09:10:51.256Z,27.81
2022-08-02T09:13:38.664Z,27.85
2022-08-02T09:20:09.035Z,27.99
2022-08-02T09:22:36.778Z,28.05
2022-08-02T09:25:04.832Z,28.12
2022-08-02T09:27:37.169Z,28.23
2022-08-02T09:30:15.369Z,28.34
2022-08-02T09:32:47.839Z,28.39
2022-08-02T09:36:06.635Z,28.44
2022-08-02T09:38:19.717Z,28.58
2022-08-02T09:40:47.403Z,28.71
2022-08-02T09:43:17.262Z,28.78
2022-08-02T09:45:44.992Z,28.88
2022-08-02T09:48:13.419Z,29.01
2022-08-02T09:50:42.679Z,29.10
2022-08-02T09:53:13.885Z,29.15
2022-08-02T09:55:42.692Z,29.36
2022-08-02T09:58:21.747Z,29.52
2022-08-02T10:00:56.929Z,29.40
2022-08-02T10:03:29.033Z,29.66
2022-08-02T10:06:05.344Z,29.63
2022-08-02T10:08:34.089Z,29.75
2022-08-02T10:11:03.282Z,29.91
2022-08-02T10:13:34.507Z,29.86
2022-08-02T10:16:03.539Z,29.95
2022-08-02T10:18:41.674Z,30.04
2022-08-02T10:21:14.877Z,30.14
2022-08-02T10:23:45.369Z,30.18
2022-08-02T10:26:18.506Z,30.27
2022-08-02T10:28:50.448Z,30.20
2022-08-02T10:31:21.884Z,30.36
2022-08-02T10:33:52.997Z,30.47
2022-08-02T10:36:23.546Z,30.63
2022-08-02T10:38:51.837Z,30.83
2022-08-02T10:41:48.051Z,30.84
2022-08-02T10:44:27.777Z,30.76
2022-08-02T10:47:24.056Z,30.84
2022-08-02T10:49:53.911Z,30.85
2022-08-02T10:52:22.848Z,30.96
2022-08-02T10:54:56.299Z,30.98
2022-08-02T10:57:26.313Z,31.03
2022-08-02T10:59:58.238Z,31.06
2022-08-02T11:02:43.313Z,31.18
2022-08-02T11:05:13.795Z,31.25
2022-08-02T11:07:47.466Z,31.34
2022-08-02T11:10:44.467Z,31.49
2022-08-02T11:13:15.002Z,31.48
2022-08-02T11:15:58.834Z,31.47
2022-08-02T11:19:02.160Z,31.53
2022-08-02T11:21:30.850Z,31.65
2022-08-02T11:24:29.314Z,31.67
2022-08-02T11:26:58.329Z,31.73
2022-08-02T11:29:39.782Z,31.75
2022-08-02T11:32:16.332Z,32.09
2022-08-02T11:34:46.620Z,32.37
2022-08-02T11:37:14.511Z,32.43
2022-08-02T11:39:51.175Z,32.62
2022-08-02T11:42:18.908Z,32.66
2022-08-02T11:44:46.853Z,32.64
2022-08-02T11:47:16.189Z,32.90
2022-08-02T11:49:44.671Z,32.84
2022-08-02T11:52:12.844Z,32.73
2022-08-02T11:54:42.341Z,32.55
2022-08-02T11:57:16.856Z,32.23
2022-08-02T11:59:50.178Z,32.10
2022-08-02T12:02:20.269Z,31.96
2022-08-02T12:04:57.255Z,31.59
2022-08-02T12:07:34.724Z,31.30
2022-08-02T12:10:06.158Z,31.27
2022-08-02T12:12:34.015Z,31.17
2022-08-02T12:15:01.721Z,31.03
2022-08-02T12:17:48.387Z,31.00
2022-08-02T12:20:17.164Z,30.70
2022-08-02T12:22:45.246Z,30.63
2022-08-02T12:25:34.725Z,30.67
2022-08-02T12:28:22.327Z,30.62
2022-08-02T12:30:52.662Z,30.55
2022-08-02T12:33:23.074Z,30.57
2022-08-02T12:35:51.019Z,30.35
2022-08-02T12:38:18.845Z,30.39
2022-08-02T12:40:47.005Z,30.30
2022-08-02T12:43:20.605Z,30.40
2022-08-02T12:45:50.834Z,30.21
2022-08-02T12:48:37.311Z,30.09
2022-08-02T12:51:20.175Z,30.07
2022-08-02T12:53:47.953Z,30.19
2022-08-02T12:56:29.203Z,30.19
2022-08-02T12:58:57.219Z,30.24
2022-08-02T13:01:27.173Z,30.24
2022-08-02T13:04:10.323Z,30.34
2022-08-02T13:06:44.504Z,30.24
2022-08-02T13:09:15.142Z,30.25
2022-08-02T13:11:43.845Z,30.25
2022-08-02T13:14:12.169Z,30.36
2022-08-02T13:16:39.941Z,30.43
2022-08-02T13:19:09.069Z,30.40
2022-08-02T13:21:40.391Z,30.50
2022-08-02T13:24:20.786Z,30.50
2022-08-02T13:26:58.910Z,30.51
2022-08-02T13:29:26.610Z,30.79
2022-08-02T13:31:54.369Z,30.88
2022-08-02T13:34:23.453Z,31.08
2022-08-02T13:36:51.213Z,30.88
2022-08-02T13:39:18.894Z,30.97
2022-08-02T13:41:46.720Z,30.95
2022-08-02T13:44:14.501Z,30.96
2022-08-02T13:46:45.524Z,31.02
2022-08-02T13:49:18.295Z,31.01
2022-08-02T13:51:48.855Z,31.01
2022-08-02T13:54:17.315Z,31.10
2022-08-02T13:56:45.541Z,31.05
2022-08-02T13:59:54.867Z,30.96
2022-08-02T14:02:01.194Z,31.02
2022-08-02T14:04:30.661Z,31.04
2022-08-02T14:06:59.994Z,30.98
2022-08-02T14:09:28.319Z,30.93
2022-08-02T14:11:56.023Z,30.90
2022-08-02T14:14:23.648Z,30.80
2022-08-02T14:16:51.375Z,30.87
2022-08-02T14:19:21.728Z,30.83
2022-08-02T14:21:50.323Z,30.77
2022-08-02T14:24:21.039Z,30.62
2022-08-02T14:26:49.550Z,30.48
2022-08-02T14:29:18.233Z,30.52
2022-08-02T14:31:46.083Z,30.51
2022-08-02T14:34:14.531Z,30.48
2022-08-02T14:36:42.398Z,30.48
2022-08-02T14:39:10.216Z,30.42
2022-08-02T14:41:59.962Z,30.40
2022-08-02T14:44:27.130Z,30.50
2022-08-02T14:46:54.974Z,30.42
2022-08-02T14:49:26.079Z,30.40
2022-08-02T14:51:54.861Z,30.35
2022-08-02T14:54:30.274Z,30.34
2022-08-02T14:57:02.395Z,30.33
2022-08-02T14:59:30.918Z,30.29
2022-08-02T15:01:59.434Z,30.24
2022-08-02T15:04:27.678Z,30.21
2022-08-02T15:06:55.955Z,30.26
2022-08-02T15:09:23.625Z,30.14
2022-08-02T15:11:51.376Z,30.07
2022-08-02T15:14:25.800Z,29.97
2022-08-02T15:16:56.953Z,29.90
2022-08-02T15:19:46.181Z,29.87
2022-08-02T15:22:15.838Z,30.07
2022-08-02T15:24:45.060Z,30.08
2022-08-02T15:27:14.773Z,30.10
2022-08-02T15:29:45.738Z,30.13
2022-08-02T15:32:14.487Z,30.12
2022-08-02T15:34:42.400Z,30.12
2022-08-02T15:37:10.121Z,30.09
2022-08-02T15:39:38.124Z,30.14
2022-08-02T15:42:06.065Z,30.13
2022-08-02T15:44:33.861Z,30.10
2022-08-02T15:47:03.264Z,30.07
2022-08-02T15:49:30.982Z,30.10
2022-08-02T15:51:58.860Z,30.07
2022-08-02T15:54:26.532Z,30.01
2022-08-02T15:56:54.389Z,30.09
2022-08-02T15:59:22.255Z,30.10
2022-08-02T16:01:49.979Z,30.06
2022-08-02T16:04:19.012Z,30.00
2022-08-02T16:06:46.723Z,30.00
2022-08-02T16:09:14.628Z,30.01
2022-08-02T16:11:42.379Z,30.03
2022-08-02T16:14:10.648Z,30.00
2022-08-02T16:16:40.197Z,29.98
2022-08-02T16:19:30.705Z,29.94
2022-08-02T16:21:57.359Z,29.92
2022-08-02T16:24:26.182Z,29.90
2022-08-02T16:26:54.182Z,29.93
2022-08-02T16:29:21.886Z,29.85
2022-08-02T16:31:49.786Z,29.75
2022-08-02T16:34:17.995Z,29.74
2022-08-02T16:36:46.434Z,29.76
2022-08-02T16:39:15.489Z,29.72
2022-08-02T16:41:51.124Z,29.68
2022-08-02T16:44:29.643Z,29.73
2022-08-02T16:47:11.425Z,29.74
2022-08-02T16:50:04.259Z,29.68
2022-08-02T16:52:28.099Z,29.63
2022-08-02T16:54:57.633Z,29.67
2022-08-02T16:57:42.721Z,29.74
2022-08-02T17:00:13.955Z,29.70
2022-08-02T17:02:43.354Z,29.80
2022-08-02T17:05:14.348Z,29.68
2022-08-02T17:08:07.790Z,29.63
2022-08-02T17:10:33.473Z,29.64
2022-08-02T17:13:10.707Z,29.65
2022-08-02T17:16:01.330Z,29.65
2022-08-02T17:18:28.538Z,29.63
2022-08-02T17:20:56.525Z,29.81
2022-08-02T17:24:04.170Z,29.74
2022-08-02T17:26:13.710Z,29.68
2022-08-02T17:28:56.493Z,29.62
2022-08-02T17:31:29.857Z,29.60
2022-08-02T17:33:58.436Z,29.58
2022-08-02T17:36:26.337Z,29.53
2022-08-02T17:38:54.085Z,29.52
2022-08-02T17:41:37.374Z,29.50
2022-08-02T17:44:06.691Z,29.44
2022-08-02T17:49:25.739Z,29.39
2022-08-02T17:52:49.545Z,29.37
2022-08-02T17:54:42.390Z,29.31
2022-08-02T17:57:12.774Z,29.30
2022-08-02T17:59:42.540Z,29.26
2022-08-02T18:02:11.280Z,29.24
2022-08-02T18:04:39.724Z,29.19
2022-08-02T18:07:09.865Z,29.15
2022-08-02T18:09:39.553Z,29.12
2022-08-02T18:12:14.394Z,29.09
2022-08-02T18:14:46.027Z,29.06
2022-08-02T18:17:19.021Z,29.05
2022-08-02T18:19:57.485Z,29.01
2022-08-02T18:22:31.405Z,28.99
2022-08-02T18:24:59.398Z,28.95
2022-08-02T18:27:28.461Z,28.92
2022-08-02T18:30:00.338Z,28.90
2022-08-02T18:33:53.885Z,28.87
2022-08-02T18:35:20.172Z,28.82
2022-08-02T18:37:56.667Z,28.78
2022-08-02T18:40:26.247Z,28.74
2022-08-02T18:42:55.357Z,28.73
2022-08-02T18:45:23.151Z,28.70
2022-08-02T18:47:51.528Z,28.69
2022-08-02T18:50:19.914Z,28.67
2022-08-02T18:52:48.810Z,28.62
2022-08-02T18:55:17.269Z,28.58
2022-08-02T18:58:17.962Z,28.55
2022-08-02T19:00:48.150Z,28.50
2022-08-02T19:03:20.098Z,28.51
2022-08-02T19:08:36.548Z,28.46
2022-08-02T19:11:04.628Z,28.41
2022-08-02T19:13:33.717Z,28.39
2022-08-02T19:16:03.825Z,28.33
2022-08-02T19:18:32.914Z,28.29
2022-08-02T19:21:05.504Z,28.25
2022-08-02T19:23:34.063Z,28.20
2022-08-02T19:26:03.114Z,28.15
2022-08-02T19:28:33.058Z,28.12
2022-08-02T19:31:01.453Z,28.07
2022-08-02T19:34:04.498Z,28.04
2022-08-02T19:36:18.093Z,27.99
2022-08-02T19:38:49.172Z,27.97
2022-08-02T19:41:22.102Z,27.92
2022-08-02T19:44:23.455Z,27.88
2022-08-02T19:46:41.558Z,27.85
2022-08-02T19:51:57.107Z,27.82
2022-08-02T19:54:54.589Z,27.78
2022-08-02T19:57:17.010Z,27.75
2022-08-02T19:59:49.577Z,27.70
2022-08-02T20:02:18.527Z,27.66
2022-08-02T20:04:50.479Z,27.62
2022-08-02T20:07:54.230Z,27.57
2022-08-02T20:10:11.199Z,27.50
2022-08-02T20:12:39.188Z,27.46
2022-08-02T20:15:14.441Z,27.45
2022-08-02T20:17:47.653Z,27.43
2022-08-02T20:20:17.576Z,27.41
2022-08-02T20:23:32.861Z,27.36
2022-08-02T20:25:54.268Z,27.33
2022-08-02T20:28:22.890Z,27.28
2022-08-02T20:30:51.881Z,27.28
2022-08-02T20:33:23.274Z,27.25
2022-08-02T20:38:40.470Z,27.22
2022-08-02T20:41:08.802Z,27.22
2022-08-02T20:43:36.756Z,27.20
2022-08-02T20:46:05.801Z,27.20
2022-08-02T20:48:33.570Z,27.16
2022-08-02T20:51:01.277Z,27.15
2022-08-02T20:53:54.924Z,27.14
2022-08-02T20:56:24.283Z,27.12
2022-08-02T20:58:52.622Z,27.11
2022-08-02T21:01:21.847Z,27.10
2022-08-02T21:03:58.494Z,27.07
2022-08-02T21:06:28.030Z,27.03
2022-08-02T21:08:56.058Z,27.01
2022-08-02T21:11:25.397Z,26.96
2022-08-02T21:14:06.956Z,26.94
2022-08-02T21:16:38.131Z,26.90
2022-08-02T21:19:09.557Z,26.84
2022-08-02T21:21:37.455Z,26.80
2022-08-02T21:24:06.004Z,26.76
2022-08-02T21:26:33.810Z,26.73
2022-08-02T21:29:03.736Z,26.68
2022-08-02T21:31:35.696Z,26.68
2022-08-02T21:34:21.933Z,26.68
2022-08-02T21:36:54.054Z,26.66
2022-08-02T21:39:21.749Z,26.63
2022-08-02T21:41:50.291Z,26.63
2022-08-02T21:44:19.444Z,26.56
2022-08-02T21:46:49.326Z,26.51
2022-08-02T21:49:20.201Z,26.48
2022-08-02T21:51:48.902Z,26.44
2022-08-02T21:54:20.331Z,26.42
2022-08-02T21:56:48.948Z,26.40
2022-08-02T21:59:17.842Z,26.36
2022-08-02T22:01:52.677Z,26.29
2022-08-02T22:04:22.860Z,26.24
2022-08-02T22:06:50.662Z,26.20
2022-08-02T22:09:44.452Z,26.17
2022-08-02T22:12:10.295Z,26.11
2022-08-02T22:14:44.266Z,26.06
2022-08-02T22:17:17.665Z,26.01
2022-08-02T22:19:54.007Z,25.99
2022-08-02T22:22:28.426Z,26.01
2022-08-02T22:24:58.019Z,26.02
2022-08-02T22:28:34.920Z,26.02
2022-08-02T22:30:15.999Z,25.97
2022-08-02T22:33:15.341Z,25.92
2022-08-02T22:35:44.896Z,25.86
2022-08-02T22:38:18.375Z,25.80
2022-08-02T22:40:47.082Z,25.75
2022-08-02T22:43:15.926Z,25.68
2022-08-02T22:46:37.174Z,25.70
2022-08-02T22:49:05.180Z,25.68
2022-08-02T22:51:35.714Z,25.67
2022-08-02T22:54:04.610Z,25.66
2022-08-02T22:56:39.516Z,25.66
2022-08-02T22:58:40.416Z,29.40
2022-08-02T22:58:57.683Z,28.49
2022-08-02T22:59:05.637Z,27.24
2022-08-02T22:59:08.351Z,27.84
2022-08-02T23:01:43.680Z,25.45
2022-08-02T23:04:11.491Z,25.34
2022-08-02T23:06:40.606Z,25.36
2022-08-02T23:09:08.399Z,25.40
2022-08-02T23:11:36.189Z,25.38
2022-08-02T23:14:03.902Z,25.35
2022-08-02T23:16:49.035Z,25.38
2022-08-02T23:19:34.537Z,25.39
2022-08-02T23:22:03.670Z,25.36
2022-08-02T23:24:33.211Z,25.34
2022-08-02T23:27:01.596Z,25.33
2022-08-02T23:29:29.481Z,25.34
2022-08-02T23:31:57.392Z,25.35
2022-08-02T23:34:26.931Z,25.34
2022-08-02T23:36:54.666Z,25.30
2022-08-02T23:39:23.773Z,25.27
2022-08-02T23:41:55.049Z,25.20
2022-08-02T23:44:23.663Z,25.19
2022-08-02T23:46:51.955Z,25.14
2022-08-02T23:49:19.799Z,25.14
2022-08-02T23:51:48.509Z,25.10
2022-08-02T23:54:16.327Z,25.09
2022-08-02T23:56:45.696Z,25.03
2022-08-02T23:59:13.955Z,25.04
